DLH2EK EDDG-EDDM
Flight info
| Callsign | DLH2EK |
|---|---|
| Flight time | 0h 49m |
| Altitude | 31000 |
| Route | DOMEG3Y DOMEG Z841 GMH Q603 TESGA L603 BOMBI T104 HAREM/N0383F270 T104 ROKIL ROKIL1A |
| Aircraft | A319/M-SADE2E3FGIJ1LORWXYZ/HB1 |
Departure
| Time | 2026-04-30 13:10 |
|---|---|
| Airport | Münster Osnabrück Airport (EDDG) |
Arrival
| Time | 2026-04-30 14:00 |
|---|---|
| Airport | Munich Airport (EDDM) |
| Time | Latitude | Longitude | Altitude | Speed | Heading |
|---|---|---|---|---|---|
| 2026-04-30 12:48 | 52.13128 | 7.69207 | 168 ft | 0 kts | 197° |
| 2026-04-30 12:51 | 52.13131 | 7.69209 | 169 ft | 0 kts | 197° |
| 2026-04-30 13:01 | 52.13152 | 7.69220 | 168 ft | 4 kts | 198° |
| 2026-04-30 13:01 | 52.13178 | 7.69234 | 168 ft | 4 kts | 202° |
| 2026-04-30 13:01 | 52.13202 | 7.69253 | 168 ft | 4 kts | 216° |
| 2026-04-30 13:01 | 52.13218 | 7.69282 | 168 ft | 3 kts | 251° |
| 2026-04-30 13:02 | 52.13213 | 7.69260 | 168 ft | 4 kts | 251° |
| 2026-04-30 13:02 | 52.13207 | 7.69231 | 168 ft | 0 kts | 251° |
| 2026-04-30 13:04 | 52.13207 | 7.69230 | 168 ft | 1 kts | 251° |
| 2026-04-30 13:04 | 52.13200 | 7.69198 | 168 ft | 5 kts | 251° |
| 2026-04-30 13:05 | 52.13185 | 7.69124 | 168 ft | 9 kts | 251° |
| 2026-04-30 13:05 | 52.13161 | 7.69011 | 168 ft | 12 kts | 251° |
| 2026-04-30 13:05 | 52.13191 | 7.68936 | 168 ft | 8 kts | 341° |
| 2026-04-30 13:06 | 52.13334 | 7.68858 | 168 ft | 9 kts | 341° |
| 2026-04-30 13:06 | 52.13351 | 7.68774 | 168 ft | 10 kts | 252° |
| 2026-04-30 13:06 | 52.13326 | 7.68649 | 168 ft | 13 kts | 252° |
| 2026-04-30 13:06 | 52.13295 | 7.68493 | 168 ft | 16 kts | 249° |
| 2026-04-30 13:07 | 52.13254 | 7.68311 | 168 ft | 18 kts | 251° |
| 2026-04-30 13:07 | 52.13210 | 7.68100 | 168 ft | 21 kts | 251° |
| 2026-04-30 13:07 | 52.13158 | 7.67859 | 168 ft | 24 kts | 250° |
| 2026-04-30 13:07 | 52.13099 | 7.67588 | 168 ft | 27 kts | 251° |
| 2026-04-30 13:08 | 52.13040 | 7.67306 | 168 ft | 23 kts | 251° |
| 2026-04-30 13:08 | 52.13062 | 7.67087 | 167 ft | 11 kts | 307° |
| 2026-04-30 13:08 | 52.13136 | 7.67038 | 167 ft | 8 kts | 344° |
| 2026-04-30 13:08 | 52.13157 | 7.67029 | 167 ft | 0 kts | 350° |
| 2026-04-30 13:09 | 52.13168 | 7.67048 | 167 ft | 6 kts | 72° |
| 2026-04-30 13:09 | 52.13178 | 7.67127 | 166 ft | 0 kts | 70° |
| 2026-04-30 13:10 | 52.13179 | 7.67130 | 166 ft | 1 kts | 69° |
| 2026-04-30 13:10 | 52.13242 | 7.67434 | 165 ft | 70 kts | 71° |
| 2026-04-30 13:10 | 52.13482 | 7.68573 | 191 ft | 138 kts | 71° |
| 2026-04-30 13:10 | 52.13654 | 7.70088 | 819 ft | 139 kts | 105° |
| 2026-04-30 13:11 | 52.12973 | 7.71245 | 1455 ft | 159 kts | 150° |
| 2026-04-30 13:11 | 52.11791 | 7.71639 | 1958 ft | 191 kts | 175° |
| 2026-04-30 13:11 | 52.10373 | 7.71197 | 2449 ft | 222 kts | 188° |
| 2026-04-30 13:11 | 52.08773 | 7.70632 | 3170 ft | 247 kts | 186° |
| 2026-04-30 13:12 | 52.07071 | 7.70057 | 4289 ft | 251 kts | 185° |
| 2026-04-30 13:12 | 52.05340 | 7.69485 | 5389 ft | 258 kts | 185° |
| 2026-04-30 13:12 | 52.03553 | 7.68912 | 6419 ft | 266 kts | 185° |
| 2026-04-30 13:13 | 51.99861 | 7.67743 | 8395 ft | 278 kts | 185° |
| 2026-04-30 13:13 | 51.97931 | 7.67129 | 9389 ft | 285 kts | 185° |
| 2026-04-30 13:13 | 51.93899 | 7.65869 | 10982 ft | 311 kts | 185° |
| 2026-04-30 13:14 | 51.91698 | 7.65197 | 11371 ft | 335 kts | 186° |
| 2026-04-30 13:14 | 51.89323 | 7.64466 | 11688 ft | 359 kts | 186° |
| 2026-04-30 13:14 | 51.84147 | 7.62853 | 12555 ft | 391 kts | 187° |
| 2026-04-30 13:15 | 51.81419 | 7.61997 | 13304 ft | 397 kts | 187° |
| 2026-04-30 13:15 | 51.76868 | 7.60569 | 14522 ft | 405 kts | 187° |
| 2026-04-30 13:15 | 51.73128 | 7.59635 | 15382 ft | 408 kts | 180° |
| 2026-04-30 13:16 | 51.70287 | 7.59773 | 16041 ft | 408 kts | 169° |
| 2026-04-30 13:16 | 51.67511 | 7.60703 | 16699 ft | 408 kts | 160° |
| 2026-04-30 13:16 | 51.64829 | 7.62215 | 17331 ft | 411 kts | 156° |
| 2026-04-30 13:17 | 51.59390 | 7.65336 | 18559 ft | 419 kts | 157° |
| 2026-04-30 13:17 | 51.56631 | 7.66908 | 19078 ft | 423 kts | 157° |
| 2026-04-30 13:17 | 51.51994 | 7.69536 | 19917 ft | 428 kts | 157° |
| 2026-04-30 13:18 | 51.48201 | 7.71683 | 20553 ft | 434 kts | 157° |
| 2026-04-30 13:18 | 51.42451 | 7.74925 | 21467 ft | 442 kts | 157° |
| 2026-04-30 13:18 | 51.39541 | 7.76564 | 21926 ft | 445 kts | 157° |
| 2026-04-30 13:19 | 51.36612 | 7.78218 | 22371 ft | 449 kts | 157° |
| 2026-04-30 13:19 | 51.33655 | 7.79890 | 22785 ft | 452 kts | 157° |
| 2026-04-30 13:19 | 51.30682 | 7.81569 | 23225 ft | 455 kts | 157° |
| 2026-04-30 13:19 | 51.27695 | 7.83251 | 23673 ft | 457 kts | 158° |
| 2026-04-30 13:20 | 51.24685 | 7.84941 | 24076 ft | 460 kts | 158° |
| 2026-04-30 13:20 | 51.21650 | 7.86642 | 24430 ft | 463 kts | 158° |
| 2026-04-30 13:20 | 51.18621 | 7.88371 | 24781 ft | 464 kts | 155° |
| 2026-04-30 13:20 | 51.15710 | 7.90612 | 25122 ft | 463 kts | 147° |
| 2026-04-30 13:21 | 51.12994 | 7.93345 | 25468 ft | 463 kts | 144° |
| 2026-04-30 13:21 | 51.10277 | 7.96128 | 25815 ft | 465 kts | 144° |
| 2026-04-30 13:21 | 51.07539 | 7.98919 | 26148 ft | 467 kts | 144° |
| 2026-04-30 13:22 | 51.02038 | 8.04490 | 26819 ft | 471 kts | 144° |
| 2026-04-30 13:22 | 50.99272 | 8.07290 | 27130 ft | 473 kts | 143° |
| 2026-04-30 13:22 | 50.94605 | 8.11992 | 27755 ft | 474 kts | 144° |
| 2026-04-30 13:23 | 50.91830 | 8.14784 | 28217 ft | 472 kts | 144° |
| 2026-04-30 13:23 | 50.86304 | 8.20336 | 29177 ft | 469 kts | 143° |
| 2026-04-30 13:24 | 50.80802 | 8.25862 | 30171 ft | 467 kts | 143° |
| 2026-04-30 13:24 | 50.75334 | 8.31333 | 31068 ft | 465 kts | 143° |
| 2026-04-30 13:25 | 50.69878 | 8.36768 | 31380 ft | 463 kts | 143° |
| 2026-04-30 13:25 | 50.64431 | 8.42180 | 31404 ft | 462 kts | 143° |
| 2026-04-30 13:26 | 50.50770 | 8.55698 | 31390 ft | 464 kts | 143° |
| 2026-04-30 13:28 | 50.35955 | 8.65900 | 31375 ft | 472 kts | 159° |
| 2026-04-30 13:28 | 50.26517 | 8.70322 | 31374 ft | 472 kts | 159° |
| 2026-04-30 13:29 | 50.13786 | 8.76258 | 31368 ft | 472 kts | 159° |
| 2026-04-30 13:30 | 50.04770 | 8.81906 | 31372 ft | 462 kts | 142° |
| 2026-04-30 13:31 | 49.99885 | 8.88218 | 31371 ft | 456 kts | 133° |
| 2026-04-30 13:32 | 49.88140 | 9.04775 | 31356 ft | 456 kts | 134° |
| 2026-04-30 13:33 | 49.78728 | 9.17945 | 31362 ft | 456 kts | 133° |
| 2026-04-30 13:34 | 49.71671 | 9.27801 | 31353 ft | 456 kts | 133° |
| 2026-04-30 13:35 | 49.62244 | 9.40910 | 31341 ft | 455 kts | 131° |
| 2026-04-30 13:36 | 49.53893 | 9.55394 | 31354 ft | 452 kts | 126° |
| 2026-04-30 13:36 | 49.47662 | 9.66286 | 31340 ft | 452 kts | 127° |
| 2026-04-30 13:37 | 49.41427 | 9.77146 | 31333 ft | 452 kts | 127° |
| 2026-04-30 13:38 | 49.35176 | 9.87968 | 31354 ft | 452 kts | 126° |
| 2026-04-30 13:39 | 49.26825 | 10.02363 | 31272 ft | 451 kts | 127° |
| 2026-04-30 13:39 | 49.22723 | 10.09357 | 30553 ft | 426 kts | 127° |
| 2026-04-30 13:40 | 49.20765 | 10.12687 | 30281 ft | 416 kts | 126° |
| 2026-04-30 13:40 | 49.18849 | 10.15959 | 29683 ft | 411 kts | 126° |
| 2026-04-30 13:40 | 49.16955 | 10.19202 | 29074 ft | 406 kts | 126° |
| 2026-04-30 13:40 | 49.15089 | 10.22401 | 28512 ft | 401 kts | 126° |
| 2026-04-30 13:41 | 49.13237 | 10.25554 | 27896 ft | 398 kts | 126° |
| 2026-04-30 13:41 | 49.11364 | 10.28644 | 27323 ft | 394 kts | 127° |
| 2026-04-30 13:41 | 49.09485 | 10.31668 | 26777 ft | 392 kts | 128° |
| 2026-04-30 13:41 | 49.07600 | 10.34664 | 26217 ft | 389 kts | 128° |
| 2026-04-30 13:42 | 49.05730 | 10.37631 | 25659 ft | 387 kts | 128° |
| 2026-04-30 13:42 | 49.03870 | 10.40588 | 25128 ft | 386 kts | 128° |
| 2026-04-30 13:42 | 49.00175 | 10.46475 | 24119 ft | 382 kts | 129° |
| 2026-04-30 13:43 | 48.98334 | 10.49408 | 23262 ft | 386 kts | 129° |
| 2026-04-30 13:43 | 48.96467 | 10.52385 | 22167 ft | 392 kts | 129° |
| 2026-04-30 13:43 | 48.94582 | 10.55392 | 21089 ft | 395 kts | 129° |
| 2026-04-30 13:43 | 48.92675 | 10.58435 | 20259 ft | 394 kts | 129° |
| 2026-04-30 13:44 | 48.90800 | 10.61416 | 19406 ft | 388 kts | 129° |
| 2026-04-30 13:44 | 48.88944 | 10.64360 | 18499 ft | 383 kts | 129° |
| 2026-04-30 13:44 | 48.87115 | 10.67258 | 17521 ft | 378 kts | 130° |
| 2026-04-30 13:44 | 48.85306 | 10.70118 | 16595 ft | 372 kts | 130° |
| 2026-04-30 13:45 | 48.81770 | 10.75710 | 15081 ft | 362 kts | 130° |
| 2026-04-30 13:45 | 48.80062 | 10.78402 | 14960 ft | 347 kts | 130° |
| 2026-04-30 13:45 | 48.78419 | 10.80984 | 14837 ft | 333 kts | 130° |
| 2026-04-30 13:46 | 48.76834 | 10.83471 | 14717 ft | 321 kts | 130° |
| 2026-04-30 13:46 | 48.75310 | 10.85861 | 14596 ft | 310 kts | 129° |
| 2026-04-30 13:46 | 48.73832 | 10.88173 | 14356 ft | 303 kts | 129° |
| 2026-04-30 13:46 | 48.72372 | 10.90457 | 14048 ft | 300 kts | 129° |
| 2026-04-30 13:47 | 48.70924 | 10.92726 | 13685 ft | 298 kts | 129° |
| 2026-04-30 13:47 | 48.69407 | 10.94899 | 13015 ft | 310 kts | 140° |
| 2026-04-30 13:47 | 48.67588 | 10.96631 | 12778 ft | 304 kts | 144° |
| 2026-04-30 13:47 | 48.65799 | 10.98276 | 12519 ft | 298 kts | 144° |
| 2026-04-30 13:48 | 48.64039 | 10.99911 | 12181 ft | 296 kts | 144° |
| 2026-04-30 13:48 | 48.62292 | 11.01524 | 11836 ft | 293 kts | 144° |
| 2026-04-30 13:48 | 48.60556 | 11.03108 | 11522 ft | 290 kts | 144° |
| 2026-04-30 13:48 | 48.58833 | 11.04679 | 11182 ft | 288 kts | 144° |
| 2026-04-30 13:49 | 48.57131 | 11.06229 | 10858 ft | 285 kts | 145° |
| 2026-04-30 13:49 | 48.55452 | 11.07817 | 10500 ft | 283 kts | 144° |
| 2026-04-30 13:49 | 48.53798 | 11.09410 | 10117 ft | 282 kts | 144° |
| 2026-04-30 13:49 | 48.52155 | 11.11000 | 9642 ft | 280 kts | 144° |
| 2026-04-30 13:50 | 48.50517 | 11.12535 | 9309 ft | 276 kts | 145° |
| 2026-04-30 13:50 | 48.47294 | 11.15587 | 8510 ft | 271 kts | 143° |
| 2026-04-30 13:50 | 48.45702 | 11.17064 | 8176 ft | 266 kts | 143° |
| 2026-04-30 13:51 | 48.44434 | 11.18978 | 7772 ft | 257 kts | 119° |
| 2026-04-30 13:51 | 48.43593 | 11.21341 | 7384 ft | 255 kts | 115° |
| 2026-04-30 13:51 | 48.42801 | 11.23725 | 7160 ft | 253 kts | 115° |
| 2026-04-30 13:51 | 48.42014 | 11.26110 | 6903 ft | 253 kts | 114° |
| 2026-04-30 13:52 | 48.41238 | 11.28465 | 6543 ft | 250 kts | 114° |
| 2026-04-30 13:52 | 48.40482 | 11.30773 | 6348 ft | 241 kts | 114° |
| 2026-04-30 13:52 | 48.39746 | 11.32970 | 6167 ft | 231 kts | 114° |
| 2026-04-30 13:52 | 48.39018 | 11.35110 | 5984 ft | 221 kts | 114° |
| 2026-04-30 13:53 | 48.38324 | 11.37124 | 5803 ft | 214 kts | 115° |
| 2026-04-30 13:53 | 48.37650 | 11.39089 | 5633 ft | 208 kts | 114° |
| 2026-04-30 13:53 | 48.36986 | 11.41031 | 5443 ft | 204 kts | 115° |
| 2026-04-30 13:53 | 48.36567 | 11.42269 | 5372 ft | 203 kts | 114° |
| 2026-04-30 13:54 | 48.35709 | 11.44784 | 5163 ft | 198 kts | 114° |
| 2026-04-30 13:54 | 48.35084 | 11.46593 | 5010 ft | 192 kts | 114° |
| 2026-04-30 13:54 | 48.34474 | 11.48343 | 4858 ft | 186 kts | 111° |
| 2026-04-30 13:54 | 48.34207 | 11.50197 | 4725 ft | 178 kts | 90° |
| 2026-04-30 13:55 | 48.34324 | 11.52000 | 4568 ft | 170 kts | 84° |
| 2026-04-30 13:55 | 48.34417 | 11.53150 | 4515 ft | 163 kts | 84° |
| 2026-04-30 13:55 | 48.34551 | 11.54805 | 4389 ft | 158 kts | 83° |
| 2026-04-30 13:55 | 48.34681 | 11.56433 | 4214 ft | 156 kts | 83° |
| 2026-04-30 13:56 | 48.34846 | 11.58517 | 3969 ft | 149 kts | 84° |
| 2026-04-30 13:56 | 48.34928 | 11.59548 | 3842 ft | 150 kts | 83° |
| 2026-04-30 13:56 | 48.35052 | 11.61115 | 3651 ft | 149 kts | 83° |
| 2026-04-30 13:56 | 48.35173 | 11.62649 | 3454 ft | 144 kts | 83° |
| 2026-04-30 13:57 | 48.35283 | 11.64048 | 3254 ft | 127 kts | 83° |
| 2026-04-30 13:57 | 48.35383 | 11.65332 | 3100 ft | 122 kts | 84° |
| 2026-04-30 13:57 | 48.35482 | 11.66582 | 2928 ft | 120 kts | 83° |
| 2026-04-30 13:57 | 48.35579 | 11.67827 | 2761 ft | 119 kts | 84° |
| 2026-04-30 13:58 | 48.35676 | 11.69062 | 2561 ft | 117 kts | 82° |
| 2026-04-30 13:58 | 48.35866 | 11.71486 | 2226 ft | 116 kts | 82° |
| 2026-04-30 13:58 | 48.35955 | 11.72701 | 2043 ft | 120 kts | 84° |
| 2026-04-30 13:59 | 48.36054 | 11.73936 | 1925 ft | 121 kts | 83° |
| 2026-04-30 13:59 | 48.36148 | 11.75150 | 1749 ft | 115 kts | 81° |
| 2026-04-30 13:59 | 48.36245 | 11.76360 | 1573 ft | 117 kts | 83° |
| 2026-04-30 13:59 | 48.36338 | 11.77553 | 1478 ft | 101 kts | 83° |
| 2026-04-30 14:00 | 48.36396 | 11.78328 | 1482 ft | 34 kts | 84° |
| 2026-04-30 14:00 | 48.36366 | 11.78876 | 1484 ft | 23 kts | 118° |
| 2026-04-30 14:00 | 48.36324 | 11.79020 | 1485 ft | 13 kts | 113° |
| 2026-04-30 14:01 | 48.36286 | 11.79152 | 1481 ft | 14 kts | 113° |
| 2026-04-30 14:01 | 48.36229 | 11.79280 | 1481 ft | 15 kts | 146° |
| 2026-04-30 14:01 | 48.36123 | 11.79311 | 1474 ft | 16 kts | 173° |
| 2026-04-30 14:01 | 48.36062 | 11.79321 | 1480 ft | 8 kts | 174° |
| 2026-04-30 14:02 | 48.35999 | 11.79332 | 1482 ft | 7 kts | 172° |
| 2026-04-30 14:02 | 48.35984 | 11.79335 | 1486 ft | 0 kts | 172° |
| 2026-04-30 14:02 | 48.35976 | 11.79337 | 1478 ft | 2 kts | 172° |
| 2026-04-30 14:02 | 48.35974 | 11.79337 | 1479 ft | 1 kts | 172° |
| 2026-04-30 14:03 | 48.35964 | 11.79339 | 1483 ft | 2 kts | 172° |
| 2026-04-30 14:03 | 48.35956 | 11.79341 | 1482 ft | 4 kts | 172° |
| 2026-04-30 14:03 | 48.35895 | 11.79377 | 1482 ft | 11 kts | 157° |
| 2026-04-30 14:03 | 48.35867 | 11.79389 | 1479 ft | 1 kts | 156° |
| 2026-04-30 14:04 | 48.35841 | 11.79417 | 1481 ft | 10 kts | 143° |
| 2026-04-30 14:04 | 48.35771 | 11.79468 | 1477 ft | 12 kts | 173° |
| 2026-04-30 14:04 | 48.35683 | 11.79483 | 1485 ft | 14 kts | 173° |
| 2026-04-30 14:04 | 48.35584 | 11.79499 | 1485 ft | 15 kts | 174° |
| 2026-04-30 14:05 | 48.35484 | 11.79513 | 1485 ft | 12 kts | 182° |
| 2026-04-30 14:05 | 48.35470 | 11.79452 | 1480 ft | 6 kts | 271° |
| 2026-04-30 14:05 | 48.35463 | 11.79380 | 1485 ft | 8 kts | 264° |
| 2026-04-30 14:05 | 48.35458 | 11.79320 | 1476 ft | 0 kts | 263° |
| 2026-04-30 14:06 | 48.35457 | 11.79311 | 1479 ft | 2 kts | 263° |
| 2026-04-30 14:06 | 48.35457 | 11.79310 | 1480 ft | 0 kts | 263° |